Time;durP1;ratioP1;P1;durP2;ratioP2;P2;SDS_P1;SDS_P2;PMS_P1;PMS_P2;Temp;Humidity;BMP_temperature;BMP_pressure;BME280_temperature;BME280_humidity;BME280_pressure;Samples;Min_cycle;Max_cycle;Signal;HPM_P1;HPM_P2
2023/07/06 00:00:34;;;;;;;0.00;0.00;;;;;;;11.79;85.14;100339.13;5038991;28;20032;-81
2023/07/06 00:03:03;;;;;;;0.00;0.00;;;;;;;11.52;86.02;100325.72;5029261;28;20028;-82
2023/07/06 00:05:29;;;;;;;0.00;0.00;;;;;;;11.51;85.80;100335.84;5042597;28;20094;-81
2023/07/06 00:07:56;;;;;;;0.00;0.00;;;;;;;11.44;86.87;100346.25;5039052;28;20036;-82
2023/07/06 00:10:25;;;;;;;0.00;0.00;;;;;;;11.43;86.96;100355.56;5035057;28;20478;-82
2023/07/06 00:12:50;;;;;;;0.00;0.00;;;;;;;11.38;86.91;100357.50;5024471;28;20459;-76
2023/07/06 00:15:23;;;;;;;0.00;0.00;;;;;;;11.31;87.29;100353.09;5032535;28;20029;-77
2023/07/06 00:17:56;;;;;;;0.00;0.00;;;;;;;11.22;87.41;100330.09;5032490;28;20056;-76
2023/07/06 00:20:22;;;;;;;0.00;0.00;;;;;;;11.37;86.96;100340.22;5029899;28;20032;-76
2023/07/06 00:22:47;;;;;;;0.00;0.00;;;;;;;11.30;86.98;100326.84;5034894;28;20056;-76
2023/07/06 00:25:13;;;;;;;0.00;0.00;;;;;;;11.41;86.97;100346.00;5033086;28;20435;-74
2023/07/06 00:27:40;;;;;;;0.00;0.00;;;;;;;11.35;87.08;100337.78;5040198;28;20395;-76
2023/07/06 00:30:20;;;;;;;0.00;0.00;;;;;;;11.47;87.14;100353.13;5021487;28;20037;-75
2023/07/06 00:32:47;;;;;;;0.00;0.00;;;;;;;11.32;87.16;100346.53;5028880;28;20480;-78
2023/07/06 00:35:15;;;;;;;0.00;0.00;;;;;;;11.37;86.78;100359.41;5041598;28;20028;-76
2023/07/06 00:37:45;;;;;;;0.00;0.00;;;;;;;11.21;87.39;100338.59;5043073;28;20032;-76
2023/07/06 00:40:13;;;;;;;0.00;0.00;;;;;;;11.17;87.06;100335.59;5042171;28;20067;-77
2023/07/06 00:42:43;;;;;;;0.00;0.00;;;;;;;11.28;87.40;100345.44;5066187;28;20382;-76
2023/07/06 00:45:10;;;;;;;0.00;0.00;;;;;;;11.21;87.32;100333.94;5048181;28;20024;-78
2023/07/06 00:47:37;;;;;;;0.00;0.00;;;;;;;11.33;87.58;100345.44;5057437;28;20120;-78
2023/07/06 00:50:11;;;;;;;0.00;0.00;;;;;;;11.28;87.46;100329.00;5040294;28;20016;-79
2023/07/06 00:53:13;;;;;;;0.00;0.00;;;;;;;11.25;86.82;100321.34;5038921;28;20040;-77
2023/07/06 00:55:41;;;;;;;0.00;0.00;;;;;;;11.48;87.20;100341.06;5038803;28;20767;-77
2023/07/06 00:58:36;;;;;;;0.00;0.00;;;;;;;11.53;86.79;100328.19;5041698;28;20028;-76
2023/07/06 01:01:15;;;;;;;0.00;0.00;;;;;;;11.65;86.23;100330.66;5044706;28;20111;-77
2023/07/06 01:03:50;;;;;;;0.00;0.00;;;;;;;11.61;86.16;100335.03;5039551;28;20107;-78
2023/07/06 01:06:32;;;;;;;0.00;0.00;;;;;;;11.56;86.57;100335.03;5046175;28;20020;-80
2023/07/06 01:09:03;;;;;;;0.00;0.00;;;;;;;11.65;86.60;100358.06;5041212;28;20051;-81
2023/07/06 01:11:29;;;;;;;0.00;0.00;;;;;;;11.47;86.82;100342.16;5034628;28;20029;-80
2023/07/06 01:13:55;;;;;;;0.00;0.00;;;;;;;11.41;86.40;100351.47;5034203;28;20394;-81
2023/07/06 01:16:57;;;;;;;0.00;0.00;;;;;;;11.20;87.42;100340.50;5048293;28;20017;-77
2023/07/06 01:19:53;;;;;;;0.00;0.00;;;;;;;11.33;87.79;100361.88;5045537;28;20108;-78
2023/07/06 01:22:47;;;;;;;0.00;0.00;;;;;;;11.27;87.54;100352.03;5061690;28;20020;-77
2023/07/06 01:25:35;;;;;;;0.00;0.00;;;;;;;11.32;87.86;100346.53;5000743;28;20051;-77
2023/07/06 01:28:22;;;;;;;0.00;0.00;;;;;;;11.55;88.60;100362.69;5039047;28;20138;-77
2023/07/06 01:31:35;;;;;;;0.00;0.00;;;;;;;11.67;88.29;100366.78;5065308;28;20489;-77
2023/07/06 01:34:20;;;;;;;0.00;0.00;;;;;;;11.78;88.17;100364.06;4974260;28;20136;-76
2023/07/06 01:37:45;;;;;;;0.00;0.00;;;;;;;11.77;87.77;100337.75;5054615;28;20470;-79
2023/07/06 01:40:11;;;;;;;0.00;0.00;;;;;;;11.93;87.48;100353.13;4946600;28;20129;-79
2023/07/06 01:42:54;;;;;;;0.00;0.00;;;;;;;12.07;87.14;100349.78;5001511;23;20057;-76
2023/07/06 01:45:25;;;;;;;0.00;0.00;;;;;;;12.13;87.04;100348.66;5051795;28;20029;-78
2023/07/06 01:48:10;;;;;;;0.00;0.00;;;;;;;12.15;86.50;100332.75;5067281;28;20040;-80
2023/07/06 01:51:06;;;;;;;0.00;0.00;;;;;;;12.37;86.09;100346.16;5049116;28;20471;-82
2023/07/06 01:53:55;;;;;;;0.00;0.00;;;;;;;12.42;86.20;100345.28;5058044;28;20032;-81
2023/07/06 01:56:36;;;;;;;0.05;0.05;;;;;;;12.22;85.65;100305.88;5055928;28;20052;-81
2023/07/06 01:59:07;;;;;;;0.00;0.00;;;;;;;12.31;85.84;100308.84;5058444;28;20034;-81
2023/07/06 02:01:52;;;;;;;0.00;0.00;;;;;;;12.39;85.54;100314.56;5064922;28;20055;-82
2023/07/06 02:04:21;;;;;;;0.00;0.00;;;;;;;12.42;85.68;100304.16;5053708;28;20023;-80
2023/07/06 02:07:18;;;;;;;;;;;;;;;;;;;;;
2023/07/06 02:09:51;;;;;;;0.00;0.00;;;;;;;12.57;85.28;100306.81;5066295;28;20144;-77
2023/07/06 02:12:18;;;;;;;0.00;0.00;;;;;;;12.48;85.56;100294.81;5052776;28;20035;-79
2023/07/06 02:14:44;;;;;;;0.00;0.00;;;;;;;12.62;85.38;100326.00;5069594;28;20016;-80
2023/07/06 02:17:11;;;;;;;0.00;0.00;;;;;;;12.53;84.98;100312.06;5070075;28;20690;-80
2023/07/06 02:19:38;;;;;;;0.00;0.00;;;;;;;12.57;85.31;100309.56;5059171;28;20025;-81
2023/07/06 02:22:04;;;;;;;0.00;0.00;;;;;;;12.56;85.20;100308.75;5044843;28;20115;-81
2023/07/06 02:24:36;;;;;;;0.00;0.00;;;;;;;12.49;85.49;100296.44;5043906;28;20032;-81
2023/07/06 02:27:09;;;;;;;0.00;0.00;;;;;;;12.52;85.32;100304.09;5067145;28;20032;-81
2023/07/06 02:29:36;;;;;;;0.00;0.00;;;;;;;12.63;85.04;100315.84;5059941;28;20025;-80
2023/07/06 02:32:13;;;;;;;;;;;;;;;;;;;;;
2023/07/06 02:34:34;;;;;;;0.00;0.00;;;;;;;12.61;85.41;100307.09;4859259;23;20124;-80
2023/07/06 02:36:59;;;;;;;0.00;0.00;;;;;;;12.53;84.82;100283.81;5038936;28;20123;-80
2023/07/06 02:39:25;;;;;;;0.00;0.00;;;;;;;12.57;84.89;100298.59;5040148;28;20463;-80
2023/07/06 02:41:54;;;;;;;0.00;0.00;;;;;;;12.58;84.55;100292.00;5048284;28;20025;-78
2023/07/06 02:44:32;;;;;;;0.00;0.00;;;;;;;12.51;84.72;100275.03;5037673;28;20119;-78
2023/07/06 02:46:57;;;;;;;0.00;0.00;;;;;;;12.65;84.69;100291.72;5045343;28;20447;-78
2023/07/06 02:49:22;;;;;;;0.00;0.00;;;;;;;12.68;84.07;100291.94;5067763;28;20139;-79
2023/07/06 02:51:50;;;;;;;0.00;0.00;;;;;;;12.71;84.11;100296.06;5027432;28;20091;-80
2023/07/06 02:54:23;;;;;;;0.00;0.00;;;;;;;12.65;84.31;100292.50;5048363;28;20020;-79
2023/07/06 02:56:48;;;;;;;0.00;0.00;;;;;;;12.51;85.05;100281.34;5030301;28;20034;-77
2023/07/06 02:59:16;;;;;;;0.00;0.00;;;;;;;12.57;84.58;100306.81;5041568;28;20025;-78
2023/07/06 03:01:42;;;;;;;0.00;0.00;;;;;;;12.45;84.75;100295.38;5010388;28;20048;-79
2023/07/06 03:04:17;;;;;;;0.00;0.00;;;;;;;12.30;85.13;100297.06;5045399;28;20483;-78
2023/07/06 03:06:48;;;;;;;0.00;0.00;;;;;;;12.10;85.79;100286.19;5063971;28;20052;-79
2023/07/06 03:09:14;;;;;;;0.00;0.00;;;;;;;11.94;86.31;100290.91;5053121;28;20020;-79
2023/07/06 03:11:44;;;;;;;0.00;0.00;;;;;;;11.79;86.62;100289.81;5033224;28;20032;-80
2023/07/06 03:14:10;;;;;;;0.00;0.00;;;;;;;11.71;87.24;100295.88;5044739;28;20021;-79
2023/07/06 03:16:41;;;;;;;0.00;0.00;;;;;;;11.66;87.58;100299.41;5022485;28;20032;-79
2023/07/06 03:19:18;;;;;;;0.00;0.00;;;;;;;11.67;87.92;100328.44;5045055;28;20100;-79
2023/07/06 03:21:52;;;;;;;0.00;0.00;;;;;;;11.39;88.16;100288.78;5049765;28;20036;-79
2023/07/06 03:24:18;;;;;;;0.00;0.00;;;;;;;11.37;88.85;100301.09;5043265;28;20025;-79
2023/07/06 03:26:46;;;;;;;0.00;0.00;;;;;;;11.38;89.47;100302.75;5032592;28;20834;-79
2023/07/06 03:29:14;;;;;;;0.00;0.00;;;;;;;11.29;89.31;100306.03;5060007;28;21364;-79
2023/07/06 03:31:45;;;;;;;0.00;0.00;;;;;;;11.16;89.51;100298.34;5040462;28;20336;-79
2023/07/06 03:34:10;;;;;;;0.00;0.00;;;;;;;11.07;90.10;100294.50;5028368;28;20056;-79
2023/07/06 03:36:38;;;;;;;0.00;0.00;;;;;;;11.03;90.58;100302.44;5028192;28;20478;-79
2023/07/06 03:39:05;;;;;;;0.00;0.00;;;;;;;11.12;90.77;100305.47;5023772;28;20032;-78
2023/07/06 03:41:33;;;;;;;0.00;0.00;;;;;;;11.03;91.03;100302.44;5061493;28;20086;-78
2023/07/06 03:43:59;;;;;;;0.00;0.00;;;;;;;11.06;91.58;100303.81;5046591;28;20043;-77
2023/07/06 03:46:35;;;;;;;0.00;0.00;;;;;;;11.10;92.11;100316.69;5028919;28;20574;-78
2023/07/06 03:49:03;;;;;;;0.00;0.00;;;;;;;11.11;91.60;100312.03;5048359;28;20080;-77
2023/07/06 03:51:29;;;;;;;0.00;0.00;;;;;;;11.14;91.97;100314.22;5022865;28;20667;-76
2023/07/06 03:53:55;;;;;;;0.00;0.00;;;;;;;11.13;91.60;100307.13;5052022;28;20032;-77
2023/07/06 03:56:27;;;;;;;0.00;0.00;;;;;;;11.16;91.65;100310.13;5042247;28;20036;-77
2023/07/06 03:58:57;;;;;;;0.00;0.00;;;;;;;11.16;91.45;100307.38;5058527;28;20474;-77
2023/07/06 04:01:27;;;;;;;0.00;0.00;;;;;;;11.30;90.87;100313.16;5045285;28;20119;-78
2023/07/06 04:03:58;;;;;;;0.00;0.00;;;;;;;11.44;91.13;100320.81;5048375;28;20016;-79
2023/07/06 04:06:28;;;;;;;0.00;0.00;;;;;;;11.56;90.91;100315.84;5015758;28;20040;-78
2023/07/06 04:09:08;;;;;;;;;;;;;;;;;;;;;
2023/07/06 04:11:34;;;;;;;0.00;0.00;;;;;;;11.48;90.29;100300.81;5067790;28;20023;-77
2023/07/06 04:14:00;;;;;;;0.00;0.00;;;;;;;11.74;90.12;100324.59;5044235;28;20382;-79
2023/07/06 04:16:34;;;;;;;0.00;0.00;;;;;;;11.81;89.92;100325.13;5016743;28;20025;-79
2023/07/06 04:18:59;;;;;;;0.00;0.00;;;;;;;11.75;89.52;100307.88;5056781;28;20116;-78
2023/07/06 04:21:25;;;;;;;0.00;0.00;;;;;;;11.79;89.64;100313.66;5014308;28;20056;-79
2023/07/06 04:23:50;;;;;;;0.00;0.00;;;;;;;11.79;89.48;100308.16;5029005;28;20120;-80
2023/07/06 04:26:18;;;;;;;0.00;0.00;;;;;;;11.79;88.98;100325.41;5015163;28;20494;-78
2023/07/06 04:28:46;;;;;;;0.00;0.00;;;;;;;11.57;89.56;100298.34;5043541;28;20044;-78
2023/07/06 04:31:14;;;;;;;0.00;0.00;;;;;;;11.50;89.39;100301.34;5049814;28;20035;-81
2023/07/06 04:33:40;;;;;;;0.00;0.00;;;;;;;11.60;89.45;100311.47;5038212;28;20072;-79
2023/07/06 04:36:15;;;;;;;;;;;;;;;;;;;;;
2023/07/06 04:38:43;;;;;;;0.00;0.00;;;;;;;11.88;89.29;100317.47;5045898;28;20031;-82
2023/07/06 04:41:09;;;;;;;0.00;0.00;;;;;;;12.10;89.12;100321.81;5013992;28;20036;-81
2023/07/06 04:43:35;;;;;;;0.00;0.00;;;;;;;12.12;88.68;100303.16;5020844;28;20017;-80
2023/07/06 04:46:00;;;;;;;0.00;0.00;;;;;;;12.27;88.45;100314.09;5015479;28;20428;-80
2023/07/06 04:48:26;;;;;;;0.00;0.00;;;;;;;12.42;87.17;100317.88;5023112;28;20021;-79
2023/07/06 04:50:54;;;;;;;0.00;0.00;;;;;;;12.36;87.13;100301.44;5025103;28;20037;-80
2023/07/06 04:53:23;;;;;;;0.00;0.00;;;;;;;12.53;87.04;100317.53;5027467;28;20037;-80
2023/07/06 04:55:56;;;;;;;0.00;0.00;;;;;;;12.55;86.97;100314.50;5008325;28;20728;-79
2023/07/06 04:58:29;;;;;;;0.00;0.00;;;;;;;12.57;86.58;100309.56;5047372;28;20030;-78
2023/07/06 05:00:54;;;;;;;0.00;0.00;;;;;;;12.68;86.56;100316.63;5037773;28;20033;-79
2023/07/06 05:03:20;;;;;;;0.00;0.00;;;;;;;12.72;86.25;100308.69;5020316;28;20078;-78
2023/07/06 05:05:46;;;;;;;0.00;0.00;;;;;;;12.77;86.35;100310.56;4990517;28;20125;-79
2023/07/06 05:08:19;;;;;;;0.00;0.00;;;;;;;12.89;86.04;100319.25;5034030;28;20106;-78
2023/07/06 05:10:51;;;;;;;0.00;0.00;;;;;;;12.95;85.97;100328.28;5022588;28;20021;-78
2023/07/06 05:13:17;;;;;;;0.00;0.00;;;;;;;13.01;85.80;100327.13;5012472;28;20036;-76
2023/07/06 05:15:44;;;;;;;0.00;0.00;;;;;;;13.10;85.38;100326.25;5015791;28;20037;-78
2023/07/06 05:18:09;;;;;;;0.00;0.00;;;;;;;13.18;85.16;100329.50;5027865;28;20072;-77
2023/07/06 05:20:37;;;;;;;0.00;0.00;;;;;;;13.26;85.17;100331.66;5013039;28;20033;-78
2023/07/06 05:23:11;;;;;;;0.00;0.00;;;;;;;13.30;85.01;100329.94;5030017;28;20560;-79
2023/07/06 05:29:07;;;;;;;0.00;0.00;;;;;;;13.46;83.79;100311.44;5039646;28;20035;-76
2023/07/06 05:31:36;;;;;;;0.00;0.00;;;;;;;13.68;83.19;100334.88;5044902;28;20516;-78
2023/07/06 05:34:01;;;;;;;0.00;0.00;;;;;;;13.86;83.24;100342.41;5055020;28;20041;-78
2023/07/06 05:36:27;;;;;;;0.00;0.00;;;;;;;13.97;82.75;100343.13;5038062;28;20043;-79
2023/07/06 05:38:52;;;;;;;0.00;0.00;;;;;;;14.09;82.48;100346.31;5009195;28;20059;-77
2023/07/06 05:41:17;;;;;;;0.00;0.00;;;;;;;14.22;82.16;100349.47;5022726;28;20123;-78
2023/07/06 05:43:43;;;;;;;0.00;0.00;;;;;;;14.32;81.47;100354.84;5026791;28;20123;-78
2023/07/06 05:46:08;;;;;;;0.00;0.00;;;;;;;14.31;81.24;100344.97;5056248;28;20351;-79
2023/07/06 05:48:35;;;;;;;0.00;0.00;;;;;;;14.39;80.84;100341.56;5022770;28;20032;-78
2023/07/06 05:51:02;;;;;;;0.00;0.00;;;;;;;14.49;80.49;100343.38;5081603;28;20024;-78
2023/07/06 05:53:28;;;;;;;0.00;0.00;;;;;;;14.57;79.83;100344.63;5053721;28;20059;-78
2023/07/06 05:55:54;;;;;;;0.00;0.00;;;;;;;14.68;79.23;100348.94;5046986;28;20060;-78
2023/07/06 05:58:21;;;;;;;0.00;0.00;;;;;;;14.78;78.98;100351.56;5021762;28;20032;-78
2023/07/06 06:00:47;;;;;;;0.00;0.00;;;;;;;14.84;78.33;100344.84;5052647;28;20033;-77
2023/07/06 06:03:12;;;;;;;0.00;0.00;;;;;;;14.94;78.06;100356.84;5019236;28;20533;-78
2023/07/06 06:05:39;;;;;;;0.00;0.00;;;;;;;15.05;77.52;100350.06;5053132;28;20009;-79
2023/07/06 06:08:07;;;;;;;0.00;0.00;;;;;;;15.23;77.15;100355.88;5068522;28;20414;-80
2023/07/06 06:10:33;;;;;;;0.00;0.00;;;;;;;15.40;76.33;100356.13;5049371;28;20033;-80
2023/07/06 06:13:04;;;;;;;0.00;0.00;;;;;;;15.47;76.47;100334.53;5051902;28;20520;-79
2023/07/06 06:15:38;;;;;;;0.00;0.00;;;;;;;15.68;75.48;100340.53;5046032;28;20111;-75
2023/07/06 06:18:03;;;;;;;0.00;0.00;;;;;;;15.85;75.26;100356.50;5032295;28;20378;-79
2023/07/06 06:20:30;;;;;;;0.00;0.00;;;;;;;16.03;74.50;100359.50;5029915;28;20032;-78
2023/07/06 06:22:58;;;;;;;0.00;0.00;;;;;;;16.18;73.97;100363.94;5054356;28;20466;-78
2023/07/06 06:25:24;;;;;;;0.00;0.00;;;;;;;16.23;73.75;100370.16;5032934;28;20067;-78
2023/07/06 06:27:50;;;;;;;0.00;0.00;;;;;;;16.28;72.44;100368.41;5033960;28;20033;-78
2023/07/06 06:30:19;;;;;;;0.00;0.00;;;;;;;16.34;72.63;100368.03;5062603;28;20106;-78
2023/07/06 06:32:48;;;;;;;0.00;0.00;;;;;;;16.36;72.00;100351.16;5042339;28;20029;-79
2023/07/06 06:35:32;;;;;;;0.00;0.00;;;;;;;16.49;70.86;100369.66;5052795;28;20086;-78
2023/07/06 06:37:58;;;;;;;0.00;0.00;;;;;;;16.34;69.62;100361.66;5041846;28;20043;-77
2023/07/06 06:40:24;;;;;;;0.00;0.00;;;;;;;16.43;69.27;100376.41;5031714;28;20486;-76
2023/07/06 06:42:51;;;;;;;0.00;0.00;;;;;;;16.52;69.55;100388.34;5015674;28;20041;-75
2023/07/06 06:45:21;;;;;;;0.00;0.00;;;;;;;16.45;69.70;100365.88;5058821;28;20040;-79
2023/07/06 06:47:47;;;;;;;0.00;0.00;;;;;;;16.52;69.36;100371.78;5053077;28;20040;-77
2023/07/06 06:50:16;;;;;;;0.00;0.00;;;;;;;16.64;68.76;100384.28;5062232;28;20032;-79
2023/07/06 06:52:48;;;;;;;0.00;0.00;;;;;;;16.67;67.90;100372.59;5046781;28;20761;-77
2023/07/06 06:55:14;;;;;;;0.00;0.00;;;;;;;16.94;68.38;100396.66;5056831;28;20028;-78
2023/07/06 06:57:39;;;;;;;0.00;0.00;;;;;;;16.93;67.67;100390.28;5064540;28;20012;-76
2023/07/06 07:00:06;;;;;;;0.00;0.00;;;;;;;17.03;66.94;100388.44;5016331;28;20063;-77
2023/07/06 07:02:32;;;;;;;0.00;0.00;;;;;;;17.03;66.87;100382.94;5043673;28;20076;-78
2023/07/06 07:05:00;;;;;;;0.00;0.00;;;;;;;17.05;66.89;100375.94;5046102;28;20024;-77
2023/07/06 07:07:26;;;;;;;0.00;0.00;;;;;;;17.13;66.33;100377.16;5038735;28;20094;-78
2023/07/06 07:09:52;;;;;;;0.00;0.00;;;;;;;17.26;66.28;100375.50;5037001;28;20442;-77
2023/07/06 07:12:18;;;;;;;0.00;0.00;;;;;;;17.48;66.02;100382.13;5042784;28;20115;-79
2023/07/06 07:14:44;;;;;;;0.00;0.00;;;;;;;17.65;65.77;100392.53;5019654;28;20055;-78
2023/07/06 07:17:10;;;;;;;0.00;0.00;;;;;;;17.88;64.72;100399.66;5020687;28;20029;-77
2023/07/06 07:19:36;;;;;;;0.00;0.00;;;;;;;17.88;63.99;100394.13;5033208;28;20020;-77
2023/07/06 07:22:01;;;;;;;0.00;0.00;;;;;;;17.85;63.70;100396.72;5020992;28;20541;-78
2023/07/06 07:24:29;;;;;;;0.00;0.00;;;;;;;18.01;63.66;100400.75;5026947;28;20459;-79
2023/07/06 07:26:57;;;;;;;0.00;0.00;;;;;;;18.19;62.39;100401.66;5040038;28;20093;-78
2023/07/06 07:29:23;;;;;;;0.00;0.00;;;;;;;18.28;62.31;100398.94;5036014;28;20021;-78
2023/07/06 07:31:49;;;;;;;0.00;0.00;;;;;;;18.44;62.09;100388.25;5063223;28;20024;-77
2023/07/06 07:34:16;;;;;;;0.00;0.00;;;;;;;18.64;62.20;100401.50;5033333;28;20175;-78
2023/07/06 07:36:43;;;;;;;0.00;0.00;;;;;;;18.94;61.68;100409.28;5027396;28;20029;-78
2023/07/06 07:39:10;;;;;;;0.00;0.00;;;;;;;19.21;61.36;100391.53;5005204;28;20021;-77
2023/07/06 07:41:36;;;;;;;0.00;0.00;;;;;;;19.39;59.63;100394.31;4998319;28;20032;-77
2023/07/06 07:44:01;;;;;;;0.00;0.00;;;;;;;19.51;59.34;100400.84;4999921;28;20047;-78
2023/07/06 07:46:28;;;;;;;0.00;0.00;;;;;;;19.76;59.10;100412.25;5018857;28;20518;-77
2023/07/06 07:48:54;;;;;;;0.00;0.00;;;;;;;19.89;58.05;100402.16;5015578;28;20026;-77
2023/07/06 07:51:24;;;;;;;0.00;0.00;;;;;;;19.77;57.83;100393.63;5003070;28;20032;-79
2023/07/06 07:54:01;;;;;;;0.00;0.00;;;;;;;19.98;57.96;100414.03;5027370;28;20025;-78
2023/07/06 07:56:29;;;;;;;0.00;0.00;;;;;;;19.96;57.90;100388.59;5012672;28;20112;-77
2023/07/06 07:58:55;;;;;;;0.00;0.00;;;;;;;20.07;56.70;100382.69;5003082;28;20483;-77
2023/07/06 08:01:24;;;;;;;0.00;0.00;;;;;;;20.26;56.91;100404.50;5006754;28;20029;-78
2023/07/06 08:03:51;;;;;;;0.00;0.00;;;;;;;20.40;56.54;100414.22;5026233;28;20104;-78
2023/07/06 08:06:22;;;;;;;0.00;0.00;;;;;;;20.49;55.31;100424.50;5046693;28;20029;-78
2023/07/06 08:08:47;;;;;;;0.00;0.00;;;;;;;20.31;54.82;100401.50;5013519;28;20490;-77
2023/07/06 08:11:22;;;;;;;0.00;0.00;;;;;;;19.99;55.44;100396.25;5019307;28;20079;-79
2023/07/06 08:13:51;;;;;;;0.00;0.00;;;;;;;19.91;56.22;100413.72;5024588;28;20025;-78
2023/07/06 08:16:19;;;;;;;0.00;0.00;;;;;;;20.27;55.85;100398.59;5012992;28;20498;-78
2023/07/06 08:18:48;;;;;;;0.00;0.00;;;;;;;20.75;55.29;100408.53;5025359;28;20565;-77
2023/07/06 08:21:21;;;;;;;0.00;0.00;;;;;;;21.14;53.09;100408.44;4996566;28;20029;-78
2023/07/06 08:23:49;;;;;;;0.00;0.00;;;;;;;21.23;52.70;100402.81;4992487;28;20025;-77
2023/07/06 08:26:15;;;;;;;0.00;0.00;;;;;;;21.37;52.64;100411.72;5029939;28;20048;-78
2023/07/06 08:28:40;;;;;;;0.00;0.00;;;;;;;21.28;50.82;100403.44;4981918;28;20029;-78
2023/07/06 08:31:24;;;;;;;0.00;0.00;;;;;;;21.40;50.79;100399.91;5019656;28;20036;-77
2023/07/06 08:33:50;;;;;;;0.00;0.00;;;;;;;21.72;50.84;100421.75;5050070;28;20045;-78
2023/07/06 08:36:18;;;;;;;0.00;0.00;;;;;;;21.56;50.42;100407.66;5044265;28;20041;-79
2023/07/06 08:38:44;;;;;;;0.00;0.00;;;;;;;21.24;51.42;100412.81;5023527;28;20052;-77
2023/07/06 08:41:30;;;;;;;0.00;0.00;;;;;;;20.60;51.46;100403.50;5043263;28;20312;-78
2023/07/06 08:43:59;;;;;;;0.00;0.00;;;;;;;19.77;53.89;100405.56;5035122;28;20079;-77
2023/07/06 08:46:34;;;;;;;0.00;0.00;;;;;;;19.15;55.17;100409.47;5049632;28;20021;-76
2023/07/06 08:49:00;;;;;;;0.00;0.00;;;;;;;18.79;57.08;100396.66;5065137;28;20082;-75
2023/07/06 08:51:35;;;;;;;0.00;0.00;;;;;;;18.79;58.41;100391.13;5060051;28;20028;-77
2023/07/06 08:54:07;;;;;;;0.00;0.00;;;;;;;18.93;58.35;100397.38;5051183;28;20029;-76
2023/07/06 08:56:39;;;;;;;0.00;0.00;;;;;;;18.98;54.29;100386.16;5066444;28;20036;-75
2023/07/06 08:59:13;;;;;;;0.00;0.00;;;;;;;18.94;54.47;100393.47;5044349;28;20035;-75
2023/07/06 09:01:39;;;;;;;0.00;0.00;;;;;;;18.88;54.91;100392.00;5065617;28;20024;-76
2023/07/06 09:04:15;;;;;;;0.00;0.00;;;;;;;18.95;54.07;100395.13;5067896;28;20021;-75
2023/07/06 09:06:47;;;;;;;0.00;0.00;;;;;;;19.22;54.13;100393.19;5048284;28;20036;-76
2023/07/06 09:09:13;;;;;;;0.00;0.00;;;;;;;19.68;53.21;100394.47;5062503;28;20035;-74
2023/07/06 09:11:44;;;;;;;0.00;0.00;;;;;;;19.74;50.80;100397.06;5074870;28;20426;-77
2023/07/06 09:14:13;;;;;;;0.00;0.00;;;;;;;19.93;49.86;100393.97;5064356;28;20475;-77
2023/07/06 09:16:58;;;;;;;0.00;0.00;;;;;;;20.37;50.38;100384.34;5048606;28;20090;-76
2023/07/06 09:19:25;;;;;;;0.00;0.00;;;;;;;20.71;49.71;100385.34;5021722;28;20991;-78
2023/07/06 09:21:55;;;;;;;0.00;0.00;;;;;;;21.01;49.27;100385.34;5032897;28;20040;-75
2023/07/06 09:24:27;;;;;;;0.00;0.00;;;;;;;21.23;47.25;100392.53;5053834;28;20016;-76
2023/07/06 09:26:53;;;;;;;0.00;0.00;;;;;;;21.53;47.94;100386.09;5043433;28;20466;-76
2023/07/06 09:29:30;;;;;;;0.00;0.00;;;;;;;21.92;46.21;100389.47;5035698;28;20047;-76
2023/07/06 09:32:19;;;;;;;0.00;0.00;;;;;;;21.87;45.94;100386.91;5061502;28;20079;-76
2023/07/06 09:34:49;;;;;;;0.00;0.00;;;;;;;22.02;45.19;100385.44;5044104;28;20131;-76
2023/07/06 09:37:15;;;;;;;0.00;0.00;;;;;;;22.38;43.12;100397.81;5049727;28;20970;-76
2023/07/06 09:39:41;;;;;;;0.00;0.00;;;;;;;22.41;43.85;100388.75;5065137;28;20032;-76
2023/07/06 09:42:14;;;;;;;0.00;0.00;;;;;;;22.50;42.97;100389.47;5066209;28;20138;-75
2023/07/06 09:44:42;;;;;;;0.00;0.00;;;;;;;22.91;42.25;100392.34;5054016;28;20025;-76
2023/07/06 09:47:13;;;;;;;0.00;0.00;;;;;;;23.47;41.17;100392.47;5069099;28;20032;-75
2023/07/06 09:49:52;;;;;;;0.00;0.00;;;;;;;23.50;39.39;100394.53;5067797;28;20021;-75
2023/07/06 09:52:19;;;;;;;0.00;0.00;;;;;;;23.55;36.42;100407.44;5047266;28;20020;-75
2023/07/06 09:54:54;;;;;;;0.00;0.00;;;;;;;23.03;37.76;100403.50;5043328;28;20040;-77
2023/07/06 09:57:24;;;;;;;0.00;0.00;;;;;;;22.68;38.42;100401.19;5054497;28;20020;-75
2023/07/06 09:59:49;;;;;;;0.00;0.00;;;;;;;22.26;39.99;100395.81;5039947;28;20040;-76
2023/07/06 10:02:41;;;;;;;0.00;0.00;;;;;;;22.01;40.79;100401.31;5024516;28;20406;-75
2023/07/06 10:05:36;;;;;;;0.00;0.00;;;;;;;21.54;40.80;100401.66;5060126;28;20040;-73
2023/07/06 10:08:05;;;;;;;0.00;0.00;;;;;;;21.36;42.44;100410.09;5051486;28;20032;-75
2023/07/06 10:11:03;;;;;;;0.00;0.00;;;;;;;21.16;43.22;100405.31;5046010;28;20653;-75
2023/07/06 10:13:38;;;;;;;0.00;0.00;;;;;;;21.00;44.97;100405.94;5042419;28;20470;-76
2023/07/06 10:16:15;;;;;;;0.00;0.00;;;;;;;20.86;46.39;100402.59;5068270;28;20089;-75
2023/07/06 10:19:21;;;;;;;0.00;0.00;;;;;;;20.50;47.91;100412.22;5065232;28;20082;-75
2023/07/06 10:22:08;;;;;;;0.00;0.00;;;;;;;20.43;48.01;100407.19;5057265;28;20066;-76
2023/07/06 10:25:11;;;;;;;0.00;0.00;;;;;;;19.97;50.19;100412.41;5061229;28;20051;-74
2023/07/06 10:27:43;;;;;;;0.00;0.00;;;;;;;19.70;50.83;100402.47;5065927;28;20024;-77
2023/07/06 10:30:33;;;;;;;0.00;0.00;;;;;;;19.61;50.71;100410.81;5048480;28;20027;-75
2023/07/06 10:33:06;;;;;;;0.00;0.00;;;;;;;19.46;51.36;100414.88;5061376;28;20044;-77
2023/07/06 10:35:45;;;;;;;0.00;0.00;;;;;;;19.26;52.49;100413.56;5068038;28;20021;-75
2023/07/06 10:38:11;;;;;;;0.00;0.00;;;;;;;19.24;52.75;100418.63;5062509;28;20024;-77
2023/07/06 10:40:37;;;;;;;0.00;0.00;;;;;;;19.24;51.17;100417.81;5025922;28;20021;-76
2023/07/06 10:43:15;;;;;;;0.00;0.00;;;;;;;19.29;50.19;100429.56;5059014;28;20039;-75
2023/07/06 10:45:42;;;;;;;0.00;0.00;;;;;;;19.55;51.14;100417.63;5056864;28;20047;-74
2023/07/06 10:48:34;;;;;;;0.00;0.00;;;;;;;20.37;50.33;100426.00;5045330;28;20021;-77
2023/07/06 10:51:14;;;;;;;0.00;0.00;;;;;;;21.27;49.04;100412.13;5033430;28;20029;-76
2023/07/06 10:53:48;;;;;;;0.00;0.00;;;;;;;21.19;48.64;100427.72;5043807;28;20048;-76
2023/07/06 10:56:19;;;;;;;;;;;;;;;21.19;47.78;100421.34;5058435;28;20103;-75
2023/07/06 10:58:54;;;;;;;0.00;0.00;;;;;;;20.98;47.44;100427.69;5042149;28;19920;-75
2023/07/06 11:01:23;;;;;;;0.00;0.00;;;;;;;20.66;48.78;100420.81;5047141;28;20032;-75
2023/07/06 11:03:48;;;;;;;0.00;0.00;;;;;;;20.69;49.87;100423.78;5033041;28;20017;-77
2023/07/06 11:06:35;;;;;;;0.00;0.00;;;;;;;20.92;49.39;100423.47;5048299;28;20038;-76
2023/07/06 11:09:10;;;;;;;0.00;0.00;;;;;;;21.35;48.49;100439.06;5063538;28;20125;-76
2023/07/06 11:11:39;;;;;;;0.00;0.00;;;;;;;21.43;48.76;100415.91;5059746;28;20087;-76
2023/07/06 11:14:31;;;;;;;0.00;0.00;;;;;;;21.62;47.35;100423.00;5064471;28;20052;-75
2023/07/06 11:17:10;;;;;;;0.00;0.00;;;;;;;21.64;47.91;100429.03;5041878;28;20730;-74
2023/07/06 11:20:08;;;;;;;0.00;0.00;;;;;;;21.87;47.95;100426.69;5040172;28;20123;-76
2023/07/06 11:22:36;;;;;;;0.00;0.00;;;;;;;23.00;45.21;100423.72;5062118;28;20024;-75
2023/07/06 11:25:05;;;;;;;0.00;0.00;;;;;;;23.46;43.49;100415.94;5022138;28;20021;-76
2023/07/06 11:27:34;;;;;;;0.00;0.00;;;;;;;23.20;43.91;100426.72;5061461;28;20017;-76
2023/07/06 11:30:04;;;;;;;0.00;0.00;;;;;;;22.55;43.94;100427.44;5057903;28;20136;-78
2023/07/06 11:32:57;;;;;;;0.00;0.00;;;;;;;21.64;45.77;100412.34;5056872;28;20534;-78
2023/07/06 11:35:40;;;;;;;0.00;0.00;;;;;;;21.13;47.51;100417.13;5034041;28;20062;-79
2023/07/06 11:38:24;;;;;;;0.00;0.00;;;;;;;21.25;47.75;100425.56;5034859;28;20023;-78
2023/07/06 11:41:00;;;;;;;0.00;0.00;;;;;;;21.61;46.92;100402.72;5037971;28;20036;-79
2023/07/06 11:43:53;;;;;;;0.00;0.00;;;;;;;23.23;44.71;100406.50;5015449;28;20083;-78
2023/07/06 11:46:31;;;;;;;0.00;0.00;;;;;;;26.56;39.86;100409.09;5028896;28;20091;-79
2023/07/06 11:49:05;;;;;;;0.00;0.00;;;;;;;27.71;33.82;100403.47;5044439;28;20079;-79
2023/07/06 11:51:34;;;;;;;0.00;0.00;;;;;;;26.10;34.62;100420.28;5031172;28;20120;-79
2023/07/06 11:54:01;;;;;;;0.00;0.00;;;;;;;24.23;36.90;100400.94;5028057;28;20058;-78
2023/07/06 11:56:39;;;;;;;0.00;0.00;;;;;;;23.11;39.27;100408.13;5027458;28;20074;-78